YBMKYBHM

Guest
Details From YBMK - Mackay
To YBHM - Hamilton I.
Flight Number -
Tags generated
Created
Modified
Stats Distance 51 nm / 95 km
Max Altitude 100 ft / 30 m
Waypoints 3
Social Downloads 1
Likes 0
Share VATSIM

Download

Looking for another format? Having issues loading an existing format? Contact us
Advertisement - Login to hide

Notes

Basic altitude profile: - Ascent Rate: 2500ft/min - Ascent Speed: 250kts - Cruise Altitude: 35000ft - Cruise Speed: 420kts - Descent Rate: 1500ft/min - Descent Speed: 250kts Options: - Use NATs: yes - Use PACOTS: yes - Use low airways: yes - Use high airways: yes

Route

YBMK MK YBHM

ID Type Via Altitude Latitude Longitude Leg Dist Tot Dist Heading (true) Name
O YBMK APT - 0 ft / 0 m -21.17161˚ 149.18113˚ - 0 nm - Mackay
MK VOR - 100 ft / 30 m -21.17306˚ 149.18722˚ 0 nm 0 nm 104° / 104° MACKAY VOR-DME
O YBHM APT - 0 ft / 0 m -20.35748˚ 148.95164˚ 50 nm 51 nm 345° / 345° Hamilton I.

Altitude Profile

Advertisement - Login to hide

YBMK

Details ICAO YBMK (MKY)
Name Mackay
Region Australia
Timezone Australia/Brisbane (UTC+10.0)
Stats Elevation 18 ft / 5 m (AMSL)
Location -21.171614° 149.181130°
Runways 2
Magnetic Variation 8.382° E

METAR

YBMK 111800Z AUTO 19009KT 9999 // SCT026 SCT037 23/20 Q1011

Decode

TAF

Not found

Departure Runways

ID Width Length Bearing (true) Bearing (mag) Surface Threshold Offset Overrun Length
05 98 ft / 30 m 4,411 ft / 1,344 m 57.80° 49.42° Asphalt 194 ft / 59 m 0 ft / 0 m
14 148 ft / 45 m 6,516 ft / 1,986 m 147.90° 139.52° Asphalt 0 ft / 0 m 0 ft / 0 m
23 98 ft / 30 m 4,411 ft / 1,344 m 237.80° 229.42° Asphalt 0 ft / 0 m 0 ft / 0 m
32 148 ft / 45 m 6,516 ft / 1,986 m 327.90° 319.52° Asphalt 0 ft / 0 m 0 ft / 0 m

YBHM

Details ICAO YBHM (HTI)
Name Hamilton I.
Region Australia
Timezone Australia/Lindeman (UTC+10.0)
Stats Elevation 14 ft / 4 m (AMSL)
Location -20.357481° 148.951639°
Runways 1
Magnetic Variation 8.158° E

METAR

YBHM 111830Z AUTO 13017KT 9999 // SCT025 SCT036 SCT046 25/21 Q1011

Decode

TAF

TAF AMD YBHM 111117Z 1112/1124 12018KT 9999 -SHRA SCT030 INTER 1115/1124 3000 SHRA BKN015

Decode

Destination Runways

ID Width Length Bearing (true) Bearing (mag) Surface Threshold Offset Overrun Length
14 148 ft / 45 m 5,792 ft / 1,765 m 143.04° 134.88° Asphalt 0 ft / 0 m 0 ft / 0 m
32 148 ft / 45 m 5,792 ft / 1,765 m 323.03° 314.87° Asphalt 0 ft / 0 m 0 ft / 0 m

Popular Alternatives